sensor_id;sensor_type;location;lat;lon;timestamp;P1;durP1;ratioP1;P2;durP2;ratioP2
64291;SDS011;50628;51.008;13.658;2023-02-28T00:00:37;9.53;;;7.27;;
64291;SDS011;50628;51.008;13.658;2023-02-28T00:05:41;8.23;;;5.60;;
64291;SDS011;50628;51.008;13.658;2023-02-28T00:10:42;9.63;;;6.37;;
64291;SDS011;50628;51.008;13.658;2023-02-28T00:15:44;6.87;;;5.40;;
64291;SDS011;50628;51.008;13.658;2023-02-28T00:20:49;8.23;;;5.67;;
64291;SDS011;50628;51.008;13.658;2023-02-28T00:25:51;10.53;;;6.63;;
64291;SDS011;50628;51.008;13.658;2023-02-28T00:30:53;9.10;;;6.47;;
64291;SDS011;50628;51.008;13.658;2023-02-28T00:36:02;10.00;;;6.37;;
64291;SDS011;50628;51.008;13.658;2023-02-28T00:41:06;10.37;;;6.77;;
64291;SDS011;50628;51.008;13.658;2023-02-28T00:46:08;8.23;;;6.17;;
64291;SDS011;50628;51.008;13.658;2023-02-28T00:51:12;9.27;;;6.60;;
64291;SDS011;50628;51.008;13.658;2023-02-28T00:56:13;8.50;;;5.37;;
64291;SDS011;50628;51.008;13.658;2023-02-28T01:01:15;7.77;;;4.43;;
64291;SDS011;50628;51.008;13.658;2023-02-28T01:06:19;7.43;;;5.30;;
64291;SDS011;50628;51.008;13.658;2023-02-28T01:11:21;7.57;;;4.50;;
64291;SDS011;50628;51.008;13.658;2023-02-28T01:16:23;6.97;;;4.63;;
64291;SDS011;50628;51.008;13.658;2023-02-28T01:21:26;11.00;;;5.93;;
64291;SDS011;50628;51.008;13.658;2023-02-28T01:26:30;7.20;;;5.13;;
64291;SDS011;50628;51.008;13.658;2023-02-28T01:31:32;15.60;;;9.20;;
64291;SDS011;50628;51.008;13.658;2023-02-28T01:36:35;13.70;;;7.17;;
64291;SDS011;50628;51.008;13.658;2023-02-28T01:41:37;6.63;;;4.63;;
64291;SDS011;50628;51.008;13.658;2023-02-28T01:46:41;7.60;;;4.47;;
64291;SDS011;50628;51.008;13.658;2023-02-28T01:51:45;5.80;;;4.07;;
64291;SDS011;50628;51.008;13.658;2023-02-28T01:56:53;8.03;;;5.00;;
64291;SDS011;50628;51.008;13.658;2023-02-28T02:02:10;9.13;;;5.20;;
64291;SDS011;50628;51.008;13.658;2023-02-28T02:07:14;5.77;;;4.33;;
64291;SDS011;50628;51.008;13.658;2023-02-28T02:12:23;6.10;;;4.47;;
64291;SDS011;50628;51.008;13.658;2023-02-28T02:17:32;12.20;;;5.90;;
64291;SDS011;50628;51.008;13.658;2023-02-28T02:22:49;9.87;;;5.83;;
64291;SDS011;50628;51.008;13.658;2023-02-28T02:28:14;8.67;;;5.70;;
64291;SDS011;50628;51.008;13.658;2023-02-28T02:33:42;8.90;;;5.30;;
64291;SDS011;50628;51.008;13.658;2023-02-28T02:39:06;7.17;;;4.37;;
64291;SDS011;50628;51.008;13.658;2023-02-28T02:44:16;10.40;;;5.80;;
64291;SDS011;50628;51.008;13.658;2023-02-28T02:49:24;10.17;;;5.57;;
64291;SDS011;50628;51.008;13.658;2023-02-28T02:54:32;6.50;;;4.53;;
64291;SDS011;50628;51.008;13.658;2023-02-28T02:59:37;7.83;;;5.10;;
64291;SDS011;50628;51.008;13.658;2023-02-28T03:04:42;6.00;;;4.57;;
64291;SDS011;50628;51.008;13.658;2023-02-28T03:09:51;11.53;;;4.80;;
64291;SDS011;50628;51.008;13.658;2023-02-28T03:14:59;8.13;;;4.57;;
64291;SDS011;50628;51.008;13.658;2023-02-28T03:20:16;6.67;;;4.63;;
64291;SDS011;50628;51.008;13.658;2023-02-28T03:25:29;6.47;;;4.80;;
64291;SDS011;50628;51.008;13.658;2023-02-28T03:30:40;11.17;;;5.67;;
64291;SDS011;50628;51.008;13.658;2023-02-28T03:35:48;7.07;;;5.13;;
64291;SDS011;50628;51.008;13.658;2023-02-28T03:40:57;9.43;;;6.07;;
64291;SDS011;50628;51.008;13.658;2023-02-28T03:46:05;8.20;;;5.30;;
64291;SDS011;50628;51.008;13.658;2023-02-28T03:51:12;9.23;;;6.57;;
64291;SDS011;50628;51.008;13.658;2023-02-28T03:56:20;7.67;;;5.43;;
64291;SDS011;50628;51.008;13.658;2023-02-28T04:01:28;8.10;;;5.80;;
64291;SDS011;50628;51.008;13.658;2023-02-28T04:06:36;7.30;;;5.43;;
64291;SDS011;50628;51.008;13.658;2023-02-28T04:11:40;9.77;;;6.13;;
64291;SDS011;50628;51.008;13.658;2023-02-28T04:16:43;7.33;;;5.47;;
64291;SDS011;50628;51.008;13.658;2023-02-28T04:21:46;8.37;;;5.80;;
64291;SDS011;50628;51.008;13.658;2023-02-28T04:26:51;11.97;;;6.43;;
64291;SDS011;50628;51.008;13.658;2023-02-28T04:31:54;11.77;;;6.67;;
64291;SDS011;50628;51.008;13.658;2023-02-28T04:36:58;8.97;;;6.20;;
64291;SDS011;50628;51.008;13.658;2023-02-28T04:42:02;12.30;;;8.53;;
64291;SDS011;50628;51.008;13.658;2023-02-28T04:47:04;9.57;;;6.90;;
64291;SDS011;50628;51.008;13.658;2023-02-28T04:52:06;13.07;;;8.63;;
64291;SDS011;50628;51.008;13.658;2023-02-28T04:57:09;16.63;;;10.77;;
64291;SDS011;50628;51.008;13.658;2023-02-28T05:02:11;52.23;;;24.33;;
64291;SDS011;50628;51.008;13.658;2023-02-28T05:07:13;187.17;;;86.33;;
64291;SDS011;50628;51.008;13.658;2023-02-28T05:12:16;221.37;;;108.23;;
64291;SDS011;50628;51.008;13.658;2023-02-28T05:17:18;124.30;;;62.90;;
64291;SDS011;50628;51.008;13.658;2023-02-28T05:22:20;44.63;;;27.17;;
64291;SDS011;50628;51.008;13.658;2023-02-28T05:27:23;22.37;;;13.47;;
64291;SDS011;50628;51.008;13.658;2023-02-28T05:32:25;21.90;;;11.53;;
64291;SDS011;50628;51.008;13.658;2023-02-28T05:37:27;16.27;;;11.03;;
64291;SDS011;50628;51.008;13.658;2023-02-28T05:42:30;16.53;;;10.13;;
64291;SDS011;50628;51.008;13.658;2023-02-28T05:47:32;25.43;;;11.40;;
64291;SDS011;50628;51.008;13.658;2023-02-28T05:52:34;23.07;;;11.53;;
64291;SDS011;50628;51.008;13.658;2023-02-28T05:57:37;23.80;;;11.37;;
64291;SDS011;50628;51.008;13.658;2023-02-28T06:02:39;24.13;;;10.03;;
64291;SDS011;50628;51.008;13.658;2023-02-28T06:07:41;17.97;;;10.37;;
64291;SDS011;50628;51.008;13.658;2023-02-28T06:12:44;21.17;;;11.47;;
64291;SDS011;50628;51.008;13.658;2023-02-28T06:17:47;23.03;;;10.37;;
64291;SDS011;50628;51.008;13.658;2023-02-28T06:22:49;20.73;;;10.20;;
64291;SDS011;50628;51.008;13.658;2023-02-28T06:27:53;19.80;;;12.00;;
64291;SDS011;50628;51.008;13.658;2023-02-28T06:32:55;24.17;;;13.23;;
64291;SDS011;50628;51.008;13.658;2023-02-28T06:37:57;21.27;;;15.07;;
64291;SDS011;50628;51.008;13.658;2023-02-28T06:43:00;20.73;;;13.77;;
64291;SDS011;50628;51.008;13.658;2023-02-28T06:48:03;25.63;;;16.60;;
64291;SDS011;50628;51.008;13.658;2023-02-28T06:53:06;26.47;;;19.50;;
64291;SDS011;50628;51.008;13.658;2023-02-28T06:58:10;38.17;;;26.37;;
64291;SDS011;50628;51.008;13.658;2023-02-28T07:03:18;26.47;;;19.50;;
64291;SDS011;50628;51.008;13.658;2023-02-28T07:08:21;22.33;;;14.30;;
64291;SDS011;50628;51.008;13.658;2023-02-28T07:13:24;17.40;;;11.77;;
64291;SDS011;50628;51.008;13.658;2023-02-28T07:18:26;20.20;;;12.00;;
64291;SDS011;50628;51.008;13.658;2023-02-28T07:23:29;18.77;;;10.90;;
64291;SDS011;50628;51.008;13.658;2023-02-28T07:28:34;17.03;;;9.83;;
64291;SDS011;50628;51.008;13.658;2023-02-28T07:33:36;17.47;;;10.40;;
64291;SDS011;50628;51.008;13.658;2023-02-28T07:38:38;17.87;;;10.00;;
64291;SDS011;50628;51.008;13.658;2023-02-28T07:43:42;20.80;;;11.87;;
64291;SDS011;50628;51.008;13.658;2023-02-28T07:48:44;22.20;;;11.60;;
64291;SDS011;50628;51.008;13.658;2023-02-28T07:53:46;23.33;;;10.67;;
64291;SDS011;50628;51.008;13.658;2023-02-28T07:58:49;16.97;;;11.27;;
64291;SDS011;50628;51.008;13.658;2023-02-28T08:03:51;25.07;;;11.93;;
64291;SDS011;50628;51.008;13.658;2023-02-28T08:08:54;21.07;;;10.07;;
64291;SDS011;50628;51.008;13.658;2023-02-28T08:13:58;29.27;;;12.07;;
64291;SDS011;50628;51.008;13.658;2023-02-28T08:19:00;20.67;;;11.47;;
64291;SDS011;50628;51.008;13.658;2023-02-28T08:24:02;31.77;;;12.77;;
64291;SDS011;50628;51.008;13.658;2023-02-28T08:29:05;35.70;;;15.37;;
64291;SDS011;50628;51.008;13.658;2023-02-28T08:34:07;47.60;;;14.73;;
64291;SDS011;50628;51.008;13.658;2023-02-28T08:39:11;22.63;;;12.43;;
64291;SDS011;50628;51.008;13.658;2023-02-28T08:44:14;39.70;;;10.93;;
64291;SDS011;50628;51.008;13.658;2023-02-28T08:49:16;23.23;;;7.33;;
64291;SDS011;50628;51.008;13.658;2023-02-28T08:54:18;43.47;;;8.80;;
64291;SDS011;50628;51.008;13.658;2023-02-28T08:59:22;39.47;;;8.63;;
64291;SDS011;50628;51.008;13.658;2023-02-28T09:04:24;28.87;;;9.00;;
64291;SDS011;50628;51.008;13.658;2023-02-28T09:09:26;33.13;;;7.77;;
64291;SDS011;50628;51.008;13.658;2023-02-28T09:14:29;40.07;;;8.67;;
64291;SDS011;50628;51.008;13.658;2023-02-28T09:19:31;35.23;;;7.97;;
64291;SDS011;50628;51.008;13.658;2023-02-28T09:24:33;38.17;;;9.03;;
64291;SDS011;50628;51.008;13.658;2023-02-28T09:29:36;17.17;;;6.87;;
64291;SDS011;50628;51.008;13.658;2023-02-28T09:34:38;15.90;;;6.97;;
64291;SDS011;50628;51.008;13.658;2023-02-28T09:39:40;24.30;;;8.10;;
64291;SDS011;50628;51.008;13.658;2023-02-28T09:44:43;14.60;;;6.03;;
64291;SDS011;50628;51.008;13.658;2023-02-28T09:49:48;14.20;;;6.30;;
64291;SDS011;50628;51.008;13.658;2023-02-28T09:54:50;10.93;;;5.47;;
64291;SDS011;50628;51.008;13.658;2023-02-28T09:59:56;27.27;;;6.23;;
64291;SDS011;50628;51.008;13.658;2023-02-28T10:05:13;21.97;;;6.60;;
64291;SDS011;50628;51.008;13.658;2023-02-28T10:10:18;16.03;;;5.97;;
64291;SDS011;50628;51.008;13.658;2023-02-28T10:15:27;35.90;;;8.07;;
64291;SDS011;50628;51.008;13.658;2023-02-28T10:20:33;14.03;;;6.30;;
64291;SDS011;50628;51.008;13.658;2023-02-28T10:25:38;19.50;;;6.10;;
64291;SDS011;50628;51.008;13.658;2023-02-28T10:30:43;11.40;;;6.67;;
64291;SDS011;50628;51.008;13.658;2023-02-28T10:35:47;16.87;;;6.17;;
64291;SDS011;50628;51.008;13.658;2023-02-28T10:40:49;13.60;;;6.43;;
64291;SDS011;50628;51.008;13.658;2023-02-28T10:45:55;34.83;;;7.80;;
64291;SDS011;50628;51.008;13.658;2023-02-28T10:50:59;23.00;;;7.20;;
64291;SDS011;50628;51.008;13.658;2023-02-28T10:56:04;25.97;;;7.67;;
64291;SDS011;50628;51.008;13.658;2023-02-28T11:01:17;17.50;;;7.57;;
64291;SDS011;50628;51.008;13.658;2023-02-28T11:06:21;17.90;;;7.63;;
64291;SDS011;50628;51.008;13.658;2023-02-28T11:11:27;14.57;;;7.57;;
64291;SDS011;50628;51.008;13.658;2023-02-28T11:16:33;25.80;;;7.93;;
64291;SDS011;50628;51.008;13.658;2023-02-28T11:21:38;22.23;;;8.00;;
64291;SDS011;50628;51.008;13.658;2023-02-28T11:26:41;15.80;;;7.83;;
64291;SDS011;50628;51.008;13.658;2023-02-28T11:31:49;19.10;;;7.00;;
64291;SDS011;50628;51.008;13.658;2023-02-28T11:37:03;29.03;;;7.23;;
64291;SDS011;50628;51.008;13.658;2023-02-28T11:47:47;11.33;;;6.50;;
64291;SDS011;50628;51.008;13.658;2023-02-28T11:52:53;11.57;;;6.60;;
64291;SDS011;50628;51.008;13.658;2023-02-28T11:57:59;18.33;;;7.67;;
64291;SDS011;50628;51.008;13.658;2023-02-28T12:03:22;12.73;;;6.40;;
64291;SDS011;50628;51.008;13.658;2023-02-28T12:08:38;18.17;;;6.27;;
64291;SDS011;50628;51.008;13.658;2023-02-28T12:13:48;15.63;;;6.80;;
64291;SDS011;50628;51.008;13.658;2023-02-28T12:19:03;14.17;;;7.50;;
64291;SDS011;50628;51.008;13.658;2023-02-28T12:24:21;12.30;;;6.43;;
64291;SDS011;50628;51.008;13.658;2023-02-28T12:29:41;50.93;;;9.83;;
64291;SDS011;50628;51.008;13.658;2023-02-28T12:34:53;14.33;;;6.73;;
64291;SDS011;50628;51.008;13.658;2023-02-28T12:40:00;14.60;;;7.30;;
64291;SDS011;50628;51.008;13.658;2023-02-28T12:45:08;11.47;;;6.53;;
64291;SDS011;50628;51.008;13.658;2023-02-28T12:50:16;13.20;;;7.07;;
64291;SDS011;50628;51.008;13.658;2023-02-28T12:55:20;24.00;;;8.37;;
64291;SDS011;50628;51.008;13.658;2023-02-28T13:00:28;16.37;;;7.13;;
64291;SDS011;50628;51.008;13.658;2023-02-28T13:11:23;10.67;;;6.70;;
64291;SDS011;50628;51.008;13.658;2023-02-28T13:16:27;15.63;;;6.93;;
64291;SDS011;50628;51.008;13.658;2023-02-28T13:21:32;17.87;;;7.40;;
64291;SDS011;50628;51.008;13.658;2023-02-28T13:32:33;14.27;;;7.73;;
64291;SDS011;50628;51.008;13.658;2023-02-28T13:37:43;16.17;;;8.40;;
64291;SDS011;50628;51.008;13.658;2023-02-28T13:42:46;12.70;;;8.10;;
64291;SDS011;50628;51.008;13.658;2023-02-28T13:47:53;16.20;;;8.70;;
64291;SDS011;50628;51.008;13.658;2023-02-28T13:53:21;19.83;;;12.47;;
64291;SDS011;50628;51.008;13.658;2023-02-28T13:58:47;13.63;;;8.13;;
64291;SDS011;50628;51.008;13.658;2023-02-28T14:03:58;21.23;;;8.93;;
64291;SDS011;50628;51.008;13.658;2023-02-28T14:09:25;11.47;;;8.50;;
64291;SDS011;50628;51.008;13.658;2023-02-28T14:19:59;52.73;;;12.23;;
64291;SDS011;50628;51.008;13.658;2023-02-28T14:25:10;15.23;;;9.10;;
64291;SDS011;50628;51.008;13.658;2023-02-28T14:30:29;14.93;;;8.30;;
64291;SDS011;50628;51.008;13.658;2023-02-28T14:35:49;15.60;;;9.27;;
64291;SDS011;50628;51.008;13.658;2023-02-28T14:41:04;22.30;;;9.87;;
64291;SDS011;50628;51.008;13.658;2023-02-28T14:46:13;19.67;;;9.30;;
64291;SDS011;50628;51.008;13.658;2023-02-28T14:51:19;24.33;;;10.03;;
64291;SDS011;50628;51.008;13.658;2023-02-28T14:56:25;12.20;;;8.43;;
64291;SDS011;50628;51.008;13.658;2023-02-28T15:01:31;14.60;;;8.53;;
64291;SDS011;50628;51.008;13.658;2023-02-28T15:06:33;13.13;;;9.30;;
64291;SDS011;50628;51.008;13.658;2023-02-28T15:11:38;19.57;;;9.17;;
64291;SDS011;50628;51.008;13.658;2023-02-28T15:16:41;19.03;;;10.23;;
64291;SDS011;50628;51.008;13.658;2023-02-28T15:21:46;23.30;;;9.40;;
64291;SDS011;50628;51.008;13.658;2023-02-28T15:26:54;15.87;;;8.33;;
64291;SDS011;50628;51.008;13.658;2023-02-28T15:32:00;13.00;;;8.83;;
64291;SDS011;50628;51.008;13.658;2023-02-28T15:37:06;12.60;;;8.33;;
64291;SDS011;50628;51.008;13.658;2023-02-28T15:42:29;14.03;;;8.73;;
64291;SDS011;50628;51.008;13.658;2023-02-28T15:47:31;16.60;;;9.50;;
64291;SDS011;50628;51.008;13.658;2023-02-28T15:52:34;34.10;;;12.07;;
64291;SDS011;50628;51.008;13.658;2023-02-28T15:57:42;18.70;;;9.97;;
64291;SDS011;50628;51.008;13.658;2023-02-28T16:02:46;16.00;;;10.67;;
64291;SDS011;50628;51.008;13.658;2023-02-28T16:07:49;17.80;;;10.13;;
64291;SDS011;50628;51.008;13.658;2023-02-28T16:12:52;15.77;;;9.40;;
64291;SDS011;50628;51.008;13.658;2023-02-28T16:17:55;30.57;;;12.50;;
64291;SDS011;50628;51.008;13.658;2023-02-28T16:22:58;22.83;;;11.00;;
64291;SDS011;50628;51.008;13.658;2023-02-28T16:28:03;23.90;;;11.63;;
64291;SDS011;50628;51.008;13.658;2023-02-28T16:33:08;21.03;;;12.50;;
64291;SDS011;50628;51.008;13.658;2023-02-28T16:38:10;27.57;;;13.00;;
64291;SDS011;50628;51.008;13.658;2023-02-28T16:43:15;18.20;;;10.97;;
64291;SDS011;50628;51.008;13.658;2023-02-28T16:48:21;23.83;;;10.17;;
64291;SDS011;50628;51.008;13.658;2023-02-28T16:53:23;24.47;;;10.57;;
64291;SDS011;50628;51.008;13.658;2023-02-28T16:58:26;21.17;;;10.63;;
64291;SDS011;50628;51.008;13.658;2023-02-28T17:03:28;24.77;;;10.80;;
64291;SDS011;50628;51.008;13.658;2023-02-28T17:08:30;30.37;;;12.73;;
64291;SDS011;50628;51.008;13.658;2023-02-28T17:13:34;34.93;;;16.70;;
64291;SDS011;50628;51.008;13.658;2023-02-28T17:18:36;40.83;;;22.53;;
64291;SDS011;50628;51.008;13.658;2023-02-28T17:23:39;35.00;;;18.53;;
64291;SDS011;50628;51.008;13.658;2023-02-28T17:28:42;28.23;;;14.67;;
64291;SDS011;50628;51.008;13.658;2023-02-28T17:33:44;33.53;;;17.03;;
64291;SDS011;50628;51.008;13.658;2023-02-28T17:38:46;27.33;;;19.67;;
64291;SDS011;50628;51.008;13.658;2023-02-28T17:43:50;29.63;;;20.00;;
64291;SDS011;50628;51.008;13.658;2023-02-28T17:48:52;32.43;;;19.47;;
64291;SDS011;50628;51.008;13.658;2023-02-28T17:53:54;27.63;;;16.27;;
64291;SDS011;50628;51.008;13.658;2023-02-28T17:58:58;34.60;;;17.47;;
64291;SDS011;50628;51.008;13.658;2023-02-28T18:04:00;25.53;;;16.97;;
64291;SDS011;50628;51.008;13.658;2023-02-28T18:09:02;32.67;;;16.97;;
64291;SDS011;50628;51.008;13.658;2023-02-28T18:14:05;32.50;;;18.33;;
64291;SDS011;50628;51.008;13.658;2023-02-28T18:19:07;30.20;;;17.73;;
64291;SDS011;50628;51.008;13.658;2023-02-28T18:24:14;28.27;;;19.40;;
64291;SDS011;50628;51.008;13.658;2023-02-28T18:29:19;43.57;;;20.77;;
64291;SDS011;50628;51.008;13.658;2023-02-28T18:34:23;29.63;;;17.67;;
64291;SDS011;50628;51.008;13.658;2023-02-28T18:39:25;31.53;;;18.10;;
64291;SDS011;50628;51.008;13.658;2023-02-28T18:44:28;32.17;;;17.17;;
64291;SDS011;50628;51.008;13.658;2023-02-28T18:49:30;34.27;;;19.20;;
64291;SDS011;50628;51.008;13.658;2023-02-28T18:54:34;31.07;;;19.47;;
64291;SDS011;50628;51.008;13.658;2023-02-28T18:59:38;25.93;;;18.17;;
64291;SDS011;50628;51.008;13.658;2023-02-28T19:04:40;29.23;;;18.20;;
64291;SDS011;50628;51.008;13.658;2023-02-28T19:09:41;23.50;;;15.93;;
64291;SDS011;50628;51.008;13.658;2023-02-28T19:14:45;31.77;;;21.40;;
64291;SDS011;50628;51.008;13.658;2023-02-28T19:19:46;28.73;;;19.83;;
64291;SDS011;50628;51.008;13.658;2023-02-28T19:24:48;26.43;;;18.67;;
64291;SDS011;50628;51.008;13.658;2023-02-28T19:29:52;28.50;;;19.23;;
64291;SDS011;50628;51.008;13.658;2023-02-28T19:34:54;29.17;;;19.13;;
64291;SDS011;50628;51.008;13.658;2023-02-28T19:39:56;31.60;;;19.97;;
64291;SDS011;50628;51.008;13.658;2023-02-28T19:45:00;31.20;;;20.20;;
64291;SDS011;50628;51.008;13.658;2023-02-28T19:50:02;30.63;;;20.40;;
64291;SDS011;50628;51.008;13.658;2023-02-28T19:55:05;32.33;;;19.50;;
64291;SDS011;50628;51.008;13.658;2023-02-28T20:00:11;28.93;;;19.10;;
64291;SDS011;50628;51.008;13.658;2023-02-28T20:05:15;30.67;;;20.03;;
64291;SDS011;50628;51.008;13.658;2023-02-28T20:10:17;32.67;;;20.80;;
64291;SDS011;50628;51.008;13.658;2023-02-28T20:15:21;34.90;;;21.80;;
64291;SDS011;50628;51.008;13.658;2023-02-28T20:20:23;34.67;;;22.10;;
64291;SDS011;50628;51.008;13.658;2023-02-28T20:25:25;33.60;;;21.50;;
64291;SDS011;50628;51.008;13.658;2023-02-28T20:30:28;32.93;;;23.10;;
64291;SDS011;50628;51.008;13.658;2023-02-28T20:35:30;31.77;;;21.47;;
64291;SDS011;50628;51.008;13.658;2023-02-28T20:40:32;28.77;;;19.57;;
64291;SDS011;50628;51.008;13.658;2023-02-28T20:45:36;27.73;;;17.17;;
64291;SDS011;50628;51.008;13.658;2023-02-28T20:50:39;25.73;;;18.00;;
64291;SDS011;50628;51.008;13.658;2023-02-28T20:55:41;35.07;;;19.50;;
64291;SDS011;50628;51.008;13.658;2023-02-28T21:00:44;28.67;;;18.50;;
64291;SDS011;50628;51.008;13.658;2023-02-28T21:05:47;25.43;;;17.43;;
64291;SDS011;50628;51.008;13.658;2023-02-28T21:10:48;28.30;;;19.87;;
64291;SDS011;50628;51.008;13.658;2023-02-28T21:15:52;31.23;;;18.30;;
64291;SDS011;50628;51.008;13.658;2023-02-28T21:20:59;27.33;;;17.73;;
64291;SDS011;50628;51.008;13.658;2023-02-28T21:26:01;36.60;;;20.70;;
64291;SDS011;50628;51.008;13.658;2023-02-28T21:31:06;32.97;;;19.50;;
64291;SDS011;50628;51.008;13.658;2023-02-28T21:36:10;30.57;;;19.83;;
64291;SDS011;50628;51.008;13.658;2023-02-28T21:41:16;28.73;;;19.43;;
64291;SDS011;50628;51.008;13.658;2023-02-28T21:46:22;26.90;;;17.03;;
64291;SDS011;50628;51.008;13.658;2023-02-28T21:51:25;26.97;;;16.80;;
64291;SDS011;50628;51.008;13.658;2023-02-28T21:56:31;25.30;;;16.77;;
64291;SDS011;50628;51.008;13.658;2023-02-28T22:01:36;30.70;;;17.97;;
64291;SDS011;50628;51.008;13.658;2023-02-28T22:06:39;25.03;;;16.37;;
64291;SDS011;50628;51.008;13.658;2023-02-28T22:11:41;27.17;;;18.07;;
64291;SDS011;50628;51.008;13.658;2023-02-28T22:16:45;24.73;;;16.97;;
64291;SDS011;50628;51.008;13.658;2023-02-28T22:21:46;26.00;;;16.80;;
64291;SDS011;50628;51.008;13.658;2023-02-28T22:26:49;26.70;;;17.80;;
64291;SDS011;50628;51.008;13.658;2023-02-28T22:31:52;25.90;;;17.70;;
64291;SDS011;50628;51.008;13.658;2023-02-28T22:36:54;26.40;;;17.33;;
64291;SDS011;50628;51.008;13.658;2023-02-28T22:41:57;27.73;;;17.47;;
64291;SDS011;50628;51.008;13.658;2023-02-28T22:47:01;29.03;;;18.60;;
64291;SDS011;50628;51.008;13.658;2023-02-28T22:52:02;25.97;;;17.00;;
64291;SDS011;50628;51.008;13.658;2023-02-28T22:57:04;26.73;;;17.33;;
64291;SDS011;50628;51.008;13.658;2023-02-28T23:02:08;26.97;;;18.13;;
64291;SDS011;50628;51.008;13.658;2023-02-28T23:07:10;27.50;;;18.07;;
64291;SDS011;50628;51.008;13.658;2023-02-28T23:12:13;23.80;;;15.73;;
64291;SDS011;50628;51.008;13.658;2023-02-28T23:17:17;26.07;;;16.80;;
64291;SDS011;50628;51.008;13.658;2023-02-28T23:22:19;25.13;;;15.67;;
64291;SDS011;50628;51.008;13.658;2023-02-28T23:27:21;24.50;;;15.53;;
64291;SDS011;50628;51.008;13.658;2023-02-28T23:32:24;23.83;;;15.60;;
64291;SDS011;50628;51.008;13.658;2023-02-28T23:37:26;25.10;;;15.27;;
64291;SDS011;50628;51.008;13.658;2023-02-28T23:42:28;24.93;;;15.00;;
64291;SDS011;50628;51.008;13.658;2023-02-28T23:47:32;23.17;;;14.90;;
64291;SDS011;50628;51.008;13.658;2023-02-28T23:52:34;23.17;;;15.37;;
64291;SDS011;50628;51.008;13.658;2023-02-28T23:57:36;23.10;;;15.53;;
